sensor_id;sensor_type;location;lat;lon;timestamp;pressure;altitude;pressure_sealevel;temperature
30765;BMP180;494;48.744;10.106;2023-03-01T00:00:10;96140.00;;;0.70
30765;BMP180;494;48.744;10.106;2023-03-01T00:02:38;96132.00;;;0.70
30765;BMP180;494;48.744;10.106;2023-03-01T00:05:08;95630.00;;;0.70
30765;BMP180;494;48.744;10.106;2023-03-01T00:07:36;96483.00;;;0.70
30765;BMP180;494;48.744;10.106;2023-03-01T00:10:08;95716.00;;;0.80
30765;BMP180;494;48.744;10.106;2023-03-01T00:12:37;96260.00;;;0.70
30765;BMP180;494;48.744;10.106;2023-03-01T00:15:07;96059.00;;;0.40
30765;BMP180;494;48.744;10.106;2023-03-01T00:17:36;96624.00;;;0.70
30765;BMP180;494;48.744;10.106;2023-03-01T00:20:07;95990.00;;;0.70
30765;BMP180;494;48.744;10.106;2023-03-01T00:22:37;95833.00;;;-1.10
30765;BMP180;494;48.744;10.106;2023-03-01T00:25:08;95918.00;;;0.60
30765;BMP180;494;48.744;10.106;2023-03-01T00:27:36;95602.00;;;0.80
30765;BMP180;494;48.744;10.106;2023-03-01T00:30:07;96466.00;;;0.80
30765;BMP180;494;48.744;10.106;2023-03-01T00:32:36;95881.00;;;-1.30
30765;BMP180;494;48.744;10.106;2023-03-01T00:35:05;95605.00;;;0.80
30765;BMP180;494;48.744;10.106;2023-03-01T00:37:33;96341.00;;;0.80
30765;BMP180;494;48.744;10.106;2023-03-01T00:40:02;96415.00;;;0.90
30765;BMP180;494;48.744;10.106;2023-03-01T00:42:34;96081.00;;;-0.30
30765;BMP180;494;48.744;10.106;2023-03-01T00:45:04;95260.00;;;1.00
30765;BMP180;494;48.744;10.106;2023-03-01T00:47:35;95091.00;;;1.10
30765;BMP180;494;48.744;10.106;2023-03-01T00:50:04;95697.00;;;1.10
30765;BMP180;494;48.744;10.106;2023-03-01T00:52:33;96196.00;;;-4.50
30765;BMP180;494;48.744;10.106;2023-03-01T00:55:02;96589.00;;;1.20
30765;BMP180;494;48.744;10.106;2023-03-01T00:57:31;96374.00;;;1.30
30765;BMP180;494;48.744;10.106;2023-03-01T01:00:03;96346.00;;;1.40
30765;BMP180;494;48.744;10.106;2023-03-01T01:02:33;95296.00;;;1.40
30765;BMP180;494;48.744;10.106;2023-03-01T01:05:02;96306.00;;;-0.70
30765;BMP180;494;48.744;10.106;2023-03-01T01:07:31;95811.00;;;1.60
30765;BMP180;494;48.744;10.106;2023-03-01T01:10:00;95720.00;;;-0.40
30765;BMP180;494;48.744;10.106;2023-03-01T01:12:29;96484.00;;;-1.00
30765;BMP180;494;48.744;10.106;2023-03-01T01:14:58;95809.00;;;-3.00
30765;BMP180;494;48.744;10.106;2023-03-01T01:17:28;94781.00;;;1.80
30765;BMP180;494;48.744;10.106;2023-03-01T01:19:58;95988.00;;;1.90
30765;BMP180;494;48.744;10.106;2023-03-01T01:22:27;96236.00;;;1.90
30765;BMP180;494;48.744;10.106;2023-03-01T01:24:56;96530.00;;;2.00
30765;BMP180;494;48.744;10.106;2023-03-01T01:27:25;95460.00;;;-1.40
30765;BMP180;494;48.744;10.106;2023-03-01T01:29:54;95254.00;;;2.10
30765;BMP180;494;48.744;10.106;2023-03-01T01:32:22;95900.00;;;2.10
30765;BMP180;494;48.744;10.106;2023-03-01T01:34:55;95694.00;;;2.10
30765;BMP180;494;48.744;10.106;2023-03-01T01:37:23;95777.00;;;2.00
30765;BMP180;494;48.744;10.106;2023-03-01T01:39:58;95786.00;;;2.00
30765;BMP180;494;48.744;10.106;2023-03-01T01:42:28;96130.00;;;0.90
30765;BMP180;494;48.744;10.106;2023-03-01T01:45:26;96254.00;;;1.50
30765;BMP180;494;48.744;10.106;2023-03-01T01:48:02;96299.00;;;2.00
30765;BMP180;494;48.744;10.106;2023-03-01T01:50:35;96413.00;;;2.30
30765;BMP180;494;48.744;10.106;2023-03-01T01:53:10;95277.00;;;-3.00
30765;BMP180;494;48.744;10.106;2023-03-01T01:55:44;96358.00;;;2.40
30765;BMP180;494;48.744;10.106;2023-03-01T01:58:18;95990.00;;;2.50
30765;BMP180;494;48.744;10.106;2023-03-01T02:00:48;95182.00;;;2.40
30765;BMP180;494;48.744;10.106;2023-03-01T02:03:22;96248.00;;;2.50
30765;BMP180;494;48.744;10.106;2023-03-01T02:06:00;96189.00;;;2.40
30765;BMP180;494;48.744;10.106;2023-03-01T02:08:35;96414.00;;;0.30
30765;BMP180;494;48.744;10.106;2023-03-01T02:11:06;96276.00;;;2.30
30765;BMP180;494;48.744;10.106;2023-03-01T02:13:36;95363.00;;;-1.20
30765;BMP180;494;48.744;10.106;2023-03-01T02:16:08;96235.00;;;2.30
30765;BMP180;494;48.744;10.106;2023-03-01T02:18:39;95775.00;;;0.50
30765;BMP180;494;48.744;10.106;2023-03-01T02:21:27;95884.00;;;2.60
30765;BMP180;494;48.744;10.106;2023-03-01T02:24:10;95263.00;;;2.30
30765;BMP180;494;48.744;10.106;2023-03-01T02:26:49;95839.00;;;2.70
30765;BMP180;494;48.744;10.106;2023-03-01T02:29:21;95988.00;;;2.50
30765;BMP180;494;48.744;10.106;2023-03-01T02:31:54;96309.00;;;0.60
30765;BMP180;494;48.744;10.106;2023-03-01T02:34:25;95677.00;;;2.80
30765;BMP180;494;48.744;10.106;2023-03-01T02:37:01;96388.00;;;2.70
30765;BMP180;494;48.744;10.106;2023-03-01T02:39:37;95984.00;;;2.80
30765;BMP180;494;48.744;10.106;2023-03-01T02:42:13;96282.00;;;2.60
30765;BMP180;494;48.744;10.106;2023-03-01T02:44:44;96070.00;;;2.70
30765;BMP180;494;48.744;10.106;2023-03-01T02:47:13;94879.00;;;-2.20
30765;BMP180;494;48.744;10.106;2023-03-01T02:49:41;94839.00;;;-1.40
30765;BMP180;494;48.744;10.106;2023-03-01T02:52:41;96059.00;;;2.80
30765;BMP180;494;48.744;10.106;2023-03-01T02:55:16;96086.00;;;2.70
30765;BMP180;494;48.744;10.106;2023-03-01T02:57:48;95928.00;;;2.60
30765;BMP180;494;48.744;10.106;2023-03-01T03:00:23;96306.00;;;2.60
30765;BMP180;494;48.744;10.106;2023-03-01T03:02:54;95662.00;;;2.50
30765;BMP180;494;48.744;10.106;2023-03-01T03:05:27;95610.00;;;2.60
30765;BMP180;494;48.744;10.106;2023-03-01T03:07:57;95483.00;;;2.70
30765;BMP180;494;48.744;10.106;2023-03-01T03:10:29;94989.00;;;2.70
30765;BMP180;494;48.744;10.106;2023-03-01T03:13:01;96136.00;;;2.70
30765;BMP180;494;48.744;10.106;2023-03-01T03:15:32;96379.00;;;2.70
30765;BMP180;494;48.744;10.106;2023-03-01T03:18:07;95900.00;;;2.70
30765;BMP180;494;48.744;10.106;2023-03-01T03:20:38;95690.00;;;2.80
30765;BMP180;494;48.744;10.106;2023-03-01T03:23:08;96293.00;;;2.80
30765;BMP180;494;48.744;10.106;2023-03-01T03:25:36;95886.00;;;2.70
30765;BMP180;494;48.744;10.106;2023-03-01T03:28:07;96247.00;;;2.00
30765;BMP180;494;48.744;10.106;2023-03-01T03:30:41;95876.00;;;2.80
30765;BMP180;494;48.744;10.106;2023-03-01T03:33:11;96177.00;;;3.00
30765;BMP180;494;48.744;10.106;2023-03-01T03:35:43;95424.00;;;2.00
30765;BMP180;494;48.744;10.106;2023-03-01T03:38:15;96193.00;;;2.90
30765;BMP180;494;48.744;10.106;2023-03-01T03:40:48;96066.00;;;3.10
30765;BMP180;494;48.744;10.106;2023-03-01T03:43:19;96001.00;;;3.00
30765;BMP180;494;48.744;10.106;2023-03-01T03:45:50;96105.00;;;2.80
30765;BMP180;494;48.744;10.106;2023-03-01T03:48:20;95504.00;;;2.50
30765;BMP180;494;48.744;10.106;2023-03-01T03:50:52;95976.00;;;2.80
30765;BMP180;494;48.744;10.106;2023-03-01T03:53:22;95724.00;;;1.40
30765;BMP180;494;48.744;10.106;2023-03-01T03:55:52;96219.00;;;3.20
30765;BMP180;494;48.744;10.106;2023-03-01T03:58:23;96259.00;;;2.80
30765;BMP180;494;48.744;10.106;2023-03-01T04:00:56;96289.00;;;2.30
30765;BMP180;494;48.744;10.106;2023-03-01T04:03:27;96151.00;;;3.10
30765;BMP180;494;48.744;10.106;2023-03-01T04:05:58;96102.00;;;1.20
30765;BMP180;494;48.744;10.106;2023-03-01T04:08:28;95916.00;;;3.20
30765;BMP180;494;48.744;10.106;2023-03-01T04:11:00;95685.00;;;3.30
30765;BMP180;494;48.744;10.106;2023-03-01T04:13:49;96318.00;;;3.20
30765;BMP180;494;48.744;10.106;2023-03-01T04:16:19;95887.00;;;3.10
30765;BMP180;494;48.744;10.106;2023-03-01T04:18:48;96043.00;;;3.30
30765;BMP180;494;48.744;10.106;2023-03-01T04:21:16;95118.00;;;3.40
30765;BMP180;494;48.744;10.106;2023-03-01T04:23:47;96219.00;;;3.40
30765;BMP180;494;48.744;10.106;2023-03-01T04:26:20;96009.00;;;1.80
30765;BMP180;494;48.744;10.106;2023-03-01T04:28:48;95850.00;;;3.40
30765;BMP180;494;48.744;10.106;2023-03-01T04:31:19;95368.00;;;3.50
30765;BMP180;494;48.744;10.106;2023-03-01T04:33:51;96138.00;;;2.90
30765;BMP180;494;48.744;10.106;2023-03-01T04:36:22;96345.00;;;3.50
30765;BMP180;494;48.744;10.106;2023-03-01T04:38:52;96241.00;;;1.50
30765;BMP180;494;48.744;10.106;2023-03-01T04:41:23;96196.00;;;3.60
30765;BMP180;494;48.744;10.106;2023-03-01T04:43:52;95812.00;;;3.40
30765;BMP180;494;48.744;10.106;2023-03-01T04:46:22;96018.00;;;3.40
30765;BMP180;494;48.744;10.106;2023-03-01T04:48:52;96227.00;;;3.60
30765;BMP180;494;48.744;10.106;2023-03-01T04:51:21;95412.00;;;2.10
30765;BMP180;494;48.744;10.106;2023-03-01T04:53:50;95945.00;;;2.20
30765;BMP180;494;48.744;10.106;2023-03-01T04:56:18;95871.00;;;3.50
30765;BMP180;494;48.744;10.106;2023-03-01T04:58:47;95898.00;;;3.40
30765;BMP180;494;48.744;10.106;2023-03-01T05:01:19;95843.00;;;1.40
30765;BMP180;494;48.744;10.106;2023-03-01T05:03:51;96199.00;;;2.50
30765;BMP180;494;48.744;10.106;2023-03-01T05:06:21;96021.00;;;3.40
30765;BMP180;494;48.744;10.106;2023-03-01T05:08:49;95771.00;;;3.10
30765;BMP180;494;48.744;10.106;2023-03-01T05:11:18;95560.00;;;2.60
30765;BMP180;494;48.744;10.106;2023-03-01T05:13:47;95656.00;;;3.10
30765;BMP180;494;48.744;10.106;2023-03-01T05:16:17;96189.00;;;3.20
30765;BMP180;494;48.744;10.106;2023-03-01T05:18:48;95274.00;;;3.20
30765;BMP180;494;48.744;10.106;2023-03-01T05:21:18;96028.00;;;3.30
30765;BMP180;494;48.744;10.106;2023-03-01T05:23:47;95721.00;;;3.20
30765;BMP180;494;48.744;10.106;2023-03-01T05:26:18;95870.00;;;3.40
30765;BMP180;494;48.744;10.106;2023-03-01T05:29:05;96011.00;;;3.50
30765;BMP180;494;48.744;10.106;2023-03-01T05:31:36;95043.00;;;3.30
30765;BMP180;494;48.744;10.106;2023-03-01T05:34:07;95424.00;;;3.30
30765;BMP180;494;48.744;10.106;2023-03-01T05:36:36;96167.00;;;3.10
30765;BMP180;494;48.744;10.106;2023-03-01T05:39:06;96154.00;;;0.90
30765;BMP180;494;48.744;10.106;2023-03-01T05:41:35;96277.00;;;2.80
30765;BMP180;494;48.744;10.106;2023-03-01T05:44:06;96268.00;;;2.70
30765;BMP180;494;48.744;10.106;2023-03-01T05:46:35;96269.00;;;0.60
30765;BMP180;494;48.744;10.106;2023-03-01T05:49:04;94954.00;;;1.40
30765;BMP180;494;48.744;10.106;2023-03-01T05:51:36;95936.00;;;2.70
30765;BMP180;494;48.744;10.106;2023-03-01T05:54:05;96277.00;;;2.70
30765;BMP180;494;48.744;10.106;2023-03-01T05:56:35;95708.00;;;2.50
30765;BMP180;494;48.744;10.106;2023-03-01T05:59:06;96058.00;;;1.60
30765;BMP180;494;48.744;10.106;2023-03-01T06:01:35;95722.00;;;2.60
30765;BMP180;494;48.744;10.106;2023-03-01T06:04:05;96137.00;;;2.60
30765;BMP180;494;48.744;10.106;2023-03-01T06:06:36;96289.00;;;2.50
30765;BMP180;494;48.744;10.106;2023-03-01T06:09:06;96135.00;;;2.60
30765;BMP180;494;48.744;10.106;2023-03-01T06:11:37;95956.00;;;2.60
30765;BMP180;494;48.744;10.106;2023-03-01T06:14:07;96196.00;;;2.40
30765;BMP180;494;48.744;10.106;2023-03-01T06:16:37;95799.00;;;2.50
30765;BMP180;494;48.744;10.106;2023-03-01T06:19:06;95225.00;;;1.20
30765;BMP180;494;48.744;10.106;2023-03-01T06:21:36;95470.00;;;2.30
30765;BMP180;494;48.744;10.106;2023-03-01T06:24:06;96187.00;;;1.70
30765;BMP180;494;48.744;10.106;2023-03-01T06:26:35;96028.00;;;2.30
30765;BMP180;494;48.744;10.106;2023-03-01T06:29:04;95901.00;;;0.10
30765;BMP180;494;48.744;10.106;2023-03-01T06:31:34;96151.00;;;0.40
30765;BMP180;494;48.744;10.106;2023-03-01T06:34:03;95170.00;;;-0.90
30765;BMP180;494;48.744;10.106;2023-03-01T06:36:32;95983.00;;;2.30
30765;BMP180;494;48.744;10.106;2023-03-01T06:39:02;95965.00;;;2.50
30765;BMP180;494;48.744;10.106;2023-03-01T06:41:32;96388.00;;;-2.00
30765;BMP180;494;48.744;10.106;2023-03-01T06:44:02;96047.00;;;2.80
30765;BMP180;494;48.744;10.106;2023-03-01T06:46:31;95869.00;;;2.90
30765;BMP180;494;48.744;10.106;2023-03-01T06:49:01;95061.00;;;3.10
30765;BMP180;494;48.744;10.106;2023-03-01T06:51:44;96255.00;;;0.60
30765;BMP180;494;48.744;10.106;2023-03-01T06:54:15;96386.00;;;3.30
30765;BMP180;494;48.744;10.106;2023-03-01T06:56:48;96255.00;;;3.40
30765;BMP180;494;48.744;10.106;2023-03-01T06:59:19;96302.00;;;3.60
30765;BMP180;494;48.744;10.106;2023-03-01T07:01:49;96153.00;;;3.00
30765;BMP180;494;48.744;10.106;2023-03-01T07:04:18;95881.00;;;3.80
30765;BMP180;494;48.744;10.106;2023-03-01T07:06:46;96270.00;;;3.90
30765;BMP180;494;48.744;10.106;2023-03-01T07:09:24;96275.00;;;4.00
30765;BMP180;494;48.744;10.106;2023-03-01T07:11:53;94939.00;;;4.10
30765;BMP180;494;48.744;10.106;2023-03-01T07:14:22;94554.00;;;4.40
30765;BMP180;494;48.744;10.106;2023-03-01T07:16:51;95912.00;;;2.80
30765;BMP180;494;48.744;10.106;2023-03-01T07:19:21;94931.00;;;4.60
30765;BMP180;494;48.744;10.106;2023-03-01T07:21:49;94832.00;;;4.90
30765;BMP180;494;48.744;10.106;2023-03-01T07:24:18;96255.00;;;4.90
30765;BMP180;494;48.744;10.106;2023-03-01T07:26:50;96241.00;;;5.20
30765;BMP180;494;48.744;10.106;2023-03-01T07:29:19;95999.00;;;5.50
30765;BMP180;494;48.744;10.106;2023-03-01T07:31:48;96294.00;;;5.50
30765;BMP180;494;48.744;10.106;2023-03-01T07:34:17;96064.00;;;4.60
30765;BMP180;494;48.744;10.106;2023-03-01T07:36:45;95901.00;;;4.10
30765;BMP180;494;48.744;10.106;2023-03-01T07:39:14;95872.00;;;5.00
30765;BMP180;494;48.744;10.106;2023-03-01T07:41:45;96333.00;;;4.10
30765;BMP180;494;48.744;10.106;2023-03-01T07:44:16;95874.00;;;4.10
30765;BMP180;494;48.744;10.106;2023-03-01T07:46:44;95902.00;;;6.10
30765;BMP180;494;48.744;10.106;2023-03-01T07:49:13;96009.00;;;6.60
30765;BMP180;494;48.744;10.106;2023-03-01T07:51:43;96142.00;;;6.40
30765;BMP180;494;48.744;10.106;2023-03-01T07:54:12;95054.00;;;6.40
30765;BMP180;494;48.744;10.106;2023-03-01T07:56:40;95888.00;;;6.40
30765;BMP180;494;48.744;10.106;2023-03-01T07:59:09;96049.00;;;6.40
30765;BMP180;494;48.744;10.106;2023-03-01T08:01:39;96103.00;;;6.70
30765;BMP180;494;48.744;10.106;2023-03-01T08:04:08;96097.00;;;7.00
30765;BMP180;494;48.744;10.106;2023-03-01T08:06:37;96060.00;;;6.80
30765;BMP180;494;48.744;10.106;2023-03-01T08:09:06;96087.00;;;7.20
30765;BMP180;494;48.744;10.106;2023-03-01T08:11:35;96039.00;;;7.40
30765;BMP180;494;48.744;10.106;2023-03-01T08:14:05;95307.00;;;7.30
30765;BMP180;494;48.744;10.106;2023-03-01T08:16:34;96187.00;;;7.50
30765;BMP180;494;48.744;10.106;2023-03-01T08:19:06;95626.00;;;7.70
30765;BMP180;494;48.744;10.106;2023-03-01T08:21:35;95658.00;;;5.30
30765;BMP180;494;48.744;10.106;2023-03-01T08:24:05;95970.00;;;7.70
30765;BMP180;494;48.744;10.106;2023-03-01T08:26:34;95736.00;;;7.60
30765;BMP180;494;48.744;10.106;2023-03-01T08:29:03;96079.00;;;7.30
30765;BMP180;494;48.744;10.106;2023-03-01T08:31:35;95530.00;;;8.50
30765;BMP180;494;48.744;10.106;2023-03-01T08:34:08;96108.00;;;8.90
30765;BMP180;494;48.744;10.106;2023-03-01T08:36:40;96244.00;;;9.10
30765;BMP180;494;48.744;10.106;2023-03-01T08:39:11;96147.00;;;8.80
30765;BMP180;494;48.744;10.106;2023-03-01T08:41:40;96246.00;;;9.00
30765;BMP180;494;48.744;10.106;2023-03-01T08:44:11;96067.00;;;8.70
30765;BMP180;494;48.744;10.106;2023-03-01T08:46:42;95019.00;;;8.50
30765;BMP180;494;48.744;10.106;2023-03-01T08:49:16;95747.00;;;7.80
30765;BMP180;494;48.744;10.106;2023-03-01T08:51:47;96068.00;;;9.50
30765;BMP180;494;48.744;10.106;2023-03-01T08:54:18;96045.00;;;9.30
30765;BMP180;494;48.744;10.106;2023-03-01T08:56:47;95616.00;;;9.00
30765;BMP180;494;48.744;10.106;2023-03-01T08:59:17;95954.00;;;9.10
30765;BMP180;494;48.744;10.106;2023-03-01T09:01:46;95954.00;;;9.40
30765;BMP180;494;48.744;10.106;2023-03-01T09:04:16;96188.00;;;9.90
30765;BMP180;494;48.744;10.106;2023-03-01T09:06:45;95996.00;;;10.20
30765;BMP180;494;48.744;10.106;2023-03-01T09:09:17;95886.00;;;10.90
30765;BMP180;494;48.744;10.106;2023-03-01T09:11:46;95865.00;;;10.50
30765;BMP180;494;48.744;10.106;2023-03-01T09:14:17;95773.00;;;9.70
30765;BMP180;494;48.744;10.106;2023-03-01T09:16:45;95620.00;;;10.60
30765;BMP180;494;48.744;10.106;2023-03-01T09:19:15;96167.00;;;11.30
30765;BMP180;494;48.744;10.106;2023-03-01T09:21:44;95799.00;;;11.90
30765;BMP180;494;48.744;10.106;2023-03-01T09:24:21;96081.00;;;8.70
30765;BMP180;494;48.744;10.106;2023-03-01T09:26:53;95448.00;;;11.10
30765;BMP180;494;48.744;10.106;2023-03-01T09:29:22;96027.00;;;11.20
30765;BMP180;494;48.744;10.106;2023-03-01T09:31:50;95804.00;;;11.40
30765;BMP180;494;48.744;10.106;2023-03-01T09:34:23;95414.00;;;10.70
30765;BMP180;494;48.744;10.106;2023-03-01T09:36:52;96067.00;;;10.80
30765;BMP180;494;48.744;10.106;2023-03-01T09:39:21;95858.00;;;10.30
30765;BMP180;494;48.744;10.106;2023-03-01T09:41:58;95837.00;;;10.40
30765;BMP180;494;48.744;10.106;2023-03-01T09:44:40;96018.00;;;10.20
30765;BMP180;494;48.744;10.106;2023-03-01T09:47:17;95205.00;;;10.90
30765;BMP180;494;48.744;10.106;2023-03-01T09:50:02;96337.00;;;11.50
30765;BMP180;494;48.744;10.106;2023-03-01T09:52:40;94614.00;;;12.20
30765;BMP180;494;48.744;10.106;2023-03-01T09:55:14;95864.00;;;11.10
30765;BMP180;494;48.744;10.106;2023-03-01T09:57:49;95689.00;;;12.70
30765;BMP180;494;48.744;10.106;2023-03-01T10:00:37;96009.00;;;13.40
30765;BMP180;494;48.744;10.106;2023-03-01T10:03:17;96038.00;;;12.80
30765;BMP180;494;48.744;10.106;2023-03-01T10:05:59;96055.00;;;13.70
30765;BMP180;494;48.744;10.106;2023-03-01T10:08:37;96025.00;;;14.50
30765;BMP180;494;48.744;10.106;2023-03-01T10:11:21;95963.00;;;14.90
30765;BMP180;494;48.744;10.106;2023-03-01T10:14:05;95681.00;;;15.80
30765;BMP180;494;48.744;10.106;2023-03-01T10:16:44;95978.00;;;16.00
30765;BMP180;494;48.744;10.106;2023-03-01T10:19:22;95979.00;;;15.70
30765;BMP180;494;48.744;10.106;2023-03-01T10:21:57;95980.00;;;15.10
30765;BMP180;494;48.744;10.106;2023-03-01T10:24:35;95372.00;;;14.90
30765;BMP180;494;48.744;10.106;2023-03-01T10:27:09;95891.00;;;15.00
30765;BMP180;494;48.744;10.106;2023-03-01T10:29:48;95961.00;;;15.70
30765;BMP180;494;48.744;10.106;2023-03-01T10:32:18;95788.00;;;16.10
30765;BMP180;494;48.744;10.106;2023-03-01T10:34:51;95653.00;;;17.10
30765;BMP180;494;48.744;10.106;2023-03-01T10:37:22;95926.00;;;16.90
30765;BMP180;494;48.744;10.106;2023-03-01T10:40:03;95947.00;;;17.10
30765;BMP180;494;48.744;10.106;2023-03-01T10:42:38;95947.00;;;17.60
30765;BMP180;494;48.744;10.106;2023-03-01T10:45:31;95862.00;;;16.60
30765;BMP180;494;48.744;10.106;2023-03-01T10:48:14;95942.00;;;16.80
30765;BMP180;494;48.744;10.106;2023-03-01T10:50:44;95729.00;;;16.60
30765;BMP180;494;48.744;10.106;2023-03-01T10:53:25;95706.00;;;18.00
30765;BMP180;494;48.744;10.106;2023-03-01T10:56:03;95914.00;;;18.80
30765;BMP180;494;48.744;10.106;2023-03-01T10:58:33;95856.00;;;19.30
30765;BMP180;494;48.744;10.106;2023-03-01T11:01:04;95742.00;;;20.10
30765;BMP180;494;48.744;10.106;2023-03-01T11:03:36;95812.00;;;19.90
30765;BMP180;494;48.744;10.106;2023-03-01T11:06:21;95903.00;;;20.00
30765;BMP180;494;48.744;10.106;2023-03-01T11:08:51;95839.00;;;20.60
30765;BMP180;494;48.744;10.106;2023-03-01T11:11:31;95754.00;;;19.00
30765;BMP180;494;48.744;10.106;2023-03-01T11:14:05;95736.00;;;19.70
30765;BMP180;494;48.744;10.106;2023-03-01T11:17:01;95834.00;;;19.90
30765;BMP180;494;48.744;10.106;2023-03-01T11:19:30;95907.00;;;19.60
30765;BMP180;494;48.744;10.106;2023-03-01T11:22:04;95923.00;;;20.30
30765;BMP180;494;48.744;10.106;2023-03-01T11:24:44;95905.00;;;20.20
30765;BMP180;494;48.744;10.106;2023-03-01T11:27:24;95793.00;;;20.40
30765;BMP180;494;48.744;10.106;2023-03-01T11:30:00;95502.00;;;18.90
30765;BMP180;494;48.744;10.106;2023-03-01T11:32:42;95896.00;;;18.80
30765;BMP180;494;48.744;10.106;2023-03-01T11:35:19;95438.00;;;20.10
30765;BMP180;494;48.744;10.106;2023-03-01T11:38:02;95888.00;;;19.60
30765;BMP180;494;48.744;10.106;2023-03-01T11:40:37;95884.00;;;20.10
30765;BMP180;494;48.744;10.106;2023-03-01T11:43:16;95883.00;;;19.70
30765;BMP180;494;48.744;10.106;2023-03-01T11:46:25;95885.00;;;21.40
30765;BMP180;494;48.744;10.106;2023-03-01T11:49:12;95868.00;;;22.10
30765;BMP180;494;48.744;10.106;2023-03-01T11:51:55;95861.00;;;22.10
30765;BMP180;494;48.744;10.106;2023-03-01T11:54:44;95772.00;;;20.80
30765;BMP180;494;48.744;10.106;2023-03-01T11:57:38;95533.00;;;21.00
30765;BMP180;494;48.744;10.106;2023-03-01T12:00:36;95663.00;;;21.70
30765;BMP180;494;48.744;10.106;2023-03-01T12:03:28;95888.00;;;21.00
30765;BMP180;494;48.744;10.106;2023-03-01T12:06:39;95775.00;;;22.00
30765;BMP180;494;48.744;10.106;2023-03-01T12:09:27;95710.00;;;21.40
30765;BMP180;494;48.744;10.106;2023-03-01T12:12:29;95829.00;;;21.20
30765;BMP180;494;48.744;10.106;2023-03-01T12:15:45;95834.00;;;21.90
30765;BMP180;494;48.744;10.106;2023-03-01T12:18:51;95833.00;;;21.30
30765;BMP180;494;48.744;10.106;2023-03-01T12:21:36;95015.00;;;21.80
30765;BMP180;494;48.744;10.106;2023-03-01T12:24:30;95761.00;;;21.70
30765;BMP180;494;48.744;10.106;2023-03-01T12:27:22;95495.00;;;20.20
30765;BMP180;494;48.744;10.106;2023-03-01T12:30:09;95822.00;;;20.60
30765;BMP180;494;48.744;10.106;2023-03-01T12:32:54;95754.00;;;20.70
30765;BMP180;494;48.744;10.106;2023-03-01T12:35:53;95796.00;;;21.00
30765;BMP180;494;48.744;10.106;2023-03-01T12:38:42;95861.00;;;20.60
30765;BMP180;494;48.744;10.106;2023-03-01T12:41:43;95839.00;;;20.20
30765;BMP180;494;48.744;10.106;2023-03-01T12:44:34;95810.00;;;21.00
30765;BMP180;494;48.744;10.106;2023-03-01T12:47:20;95619.00;;;22.10
30765;BMP180;494;48.744;10.106;2023-03-01T12:49:57;95582.00;;;22.20
30765;BMP180;494;48.744;10.106;2023-03-01T12:52:35;95812.00;;;22.10
30765;BMP180;494;48.744;10.106;2023-03-01T12:55:20;95131.00;;;22.70
30765;BMP180;494;48.744;10.106;2023-03-01T12:58:02;95784.00;;;21.70
30765;BMP180;494;48.744;10.106;2023-03-01T13:00:39;95715.00;;;22.40
30765;BMP180;494;48.744;10.106;2023-03-01T13:03:23;95741.00;;;23.20
30765;BMP180;494;48.744;10.106;2023-03-01T13:06:07;95630.00;;;23.00
30765;BMP180;494;48.744;10.106;2023-03-01T13:08:43;95648.00;;;23.00
30765;BMP180;494;48.744;10.106;2023-03-01T13:11:19;95830.00;;;22.70
30765;BMP180;494;48.744;10.106;2023-03-01T13:13:49;95669.00;;;23.00
30765;BMP180;494;48.744;10.106;2023-03-01T13:16:40;95632.00;;;24.10
30765;BMP180;494;48.744;10.106;2023-03-01T13:19:16;95775.00;;;23.70
30765;BMP180;494;48.744;10.106;2023-03-01T13:21:47;95440.00;;;22.40
30765;BMP180;494;48.744;10.106;2023-03-01T13:24:28;95810.00;;;22.70
30765;BMP180;494;48.744;10.106;2023-03-01T13:27:22;95772.00;;;23.70
30765;BMP180;494;48.744;10.106;2023-03-01T13:29:54;95773.00;;;23.40
30765;BMP180;494;48.744;10.106;2023-03-01T13:32:24;95552.00;;;23.70
30765;BMP180;494;48.744;10.106;2023-03-01T13:35:43;95802.00;;;24.20
30765;BMP180;494;48.744;10.106;2023-03-01T13:38:41;95775.00;;;22.30
30765;BMP180;494;48.744;10.106;2023-03-01T13:41:15;95678.00;;;22.80
30765;BMP180;494;48.744;10.106;2023-03-01T13:43:46;95717.00;;;22.60
30765;BMP180;494;48.744;10.106;2023-03-01T13:46:21;95702.00;;;21.40
30765;BMP180;494;48.744;10.106;2023-03-01T13:48:56;95613.00;;;22.70
30765;BMP180;494;48.744;10.106;2023-03-01T13:51:28;95801.00;;;22.00
30765;BMP180;494;48.744;10.106;2023-03-01T13:53:58;95708.00;;;22.40
30765;BMP180;494;48.744;10.106;2023-03-01T13:56:33;95611.00;;;22.20
30765;BMP180;494;48.744;10.106;2023-03-01T13:59:13;95805.00;;;22.80
30765;BMP180;494;48.744;10.106;2023-03-01T14:01:42;95799.00;;;21.90
30765;BMP180;494;48.744;10.106;2023-03-01T14:04:22;95795.00;;;21.70
30765;BMP180;494;48.744;10.106;2023-03-01T14:06:52;95716.00;;;22.40
30765;BMP180;494;48.744;10.106;2023-03-01T14:09:41;95796.00;;;21.80
30765;BMP180;494;48.744;10.106;2023-03-01T14:12:36;95768.00;;;21.70
30765;BMP180;494;48.744;10.106;2023-03-01T14:15:18;95830.00;;;21.70
30765;BMP180;494;48.744;10.106;2023-03-01T14:17:55;95764.00;;;21.90
30765;BMP180;494;48.744;10.106;2023-03-01T14:20:29;95656.00;;;20.90
30765;BMP180;494;48.744;10.106;2023-03-01T14:23:10;95622.00;;;20.00
30765;BMP180;494;48.744;10.106;2023-03-01T14:25:48;95609.00;;;21.20
30765;BMP180;494;48.744;10.106;2023-03-01T14:28:20;95807.00;;;21.40
30765;BMP180;494;48.744;10.106;2023-03-01T14:30:52;95828.00;;;21.00
30765;BMP180;494;48.744;10.106;2023-03-01T14:33:28;95858.00;;;20.20
30765;BMP180;494;48.744;10.106;2023-03-01T14:36:00;95808.00;;;20.70
30765;BMP180;494;48.744;10.106;2023-03-01T14:38:34;95844.00;;;19.60
30765;BMP180;494;48.744;10.106;2023-03-01T14:41:07;95803.00;;;20.10
30765;BMP180;494;48.744;10.106;2023-03-01T14:43:39;95886.00;;;20.80
30765;BMP180;494;48.744;10.106;2023-03-01T14:46:19;95495.00;;;20.40
30765;BMP180;494;48.744;10.106;2023-03-01T14:48:51;95801.00;;;19.90
30765;BMP180;494;48.744;10.106;2023-03-01T14:51:20;95680.00;;;19.60
30765;BMP180;494;48.744;10.106;2023-03-01T14:53:51;95244.00;;;19.30
30765;BMP180;494;48.744;10.106;2023-03-01T14:56:20;95616.00;;;19.50
30765;BMP180;494;48.744;10.106;2023-03-01T14:58:52;95700.00;;;19.00
30765;BMP180;494;48.744;10.106;2023-03-01T15:01:21;95165.00;;;19.30
30765;BMP180;494;48.744;10.106;2023-03-01T15:03:51;95786.00;;;20.10
30765;BMP180;494;48.744;10.106;2023-03-01T15:06:22;95588.00;;;19.50
30765;BMP180;494;48.744;10.106;2023-03-01T15:08:55;95782.00;;;20.20